sensor_id;sensor_type;location;lat;lon;timestamp;pressure;altitude;pressure_sealevel;temperature;humidity
44359;BME280;30077;52.474;13.326;2023-03-20T00:02:30;100888.78;;;14.35;nan
44359;BME280;30077;52.474;13.326;2023-03-20T00:07:30;100893.97;;;14.22;nan
44359;BME280;30077;52.474;13.326;2023-03-20T00:12:31;100896.06;;;14.17;nan
44359;BME280;30077;52.474;13.326;2023-03-20T00:17:31;100901.78;;;14.11;nan
44359;BME280;30077;52.474;13.326;2023-03-20T00:22:31;100898.66;;;14.03;nan
44359;BME280;30077;52.474;13.326;2023-03-20T00:27:31;100897.59;;;13.89;nan
44359;BME280;30077;52.474;13.326;2023-03-20T00:32:32;100897.06;;;13.83;nan
44359;BME280;30077;52.474;13.326;2023-03-20T00:37:32;100892.22;;;13.73;nan
44359;BME280;30077;52.474;13.326;2023-03-20T00:42:32;100884.44;;;13.69;nan
44359;BME280;30077;52.474;13.326;2023-03-20T00:47:32;100880.00;;;13.68;nan
44359;BME280;30077;52.474;13.326;2023-03-20T00:52:36;100878.00;;;13.71;nan
44359;BME280;30077;52.474;13.326;2023-03-20T01:02:43;100881.63;;;13.55;nan
44359;BME280;30077;52.474;13.326;2023-03-20T01:07:44;100881.31;;;13.43;nan
44359;BME280;30077;52.474;13.326;2023-03-20T01:12:45;100878.72;;;13.42;nan
44359;BME280;30077;52.474;13.326;2023-03-20T01:17:45;100873.63;;;13.37;nan
44359;BME280;30077;52.474;13.326;2023-03-20T01:22:45;100878.72;;;13.42;nan
44359;BME280;30077;52.474;13.326;2023-03-20T01:27:49;100877.97;;;13.40;nan
44359;BME280;30077;52.474;13.326;2023-03-20T01:32:50;100887.63;;;13.42;nan
44359;BME280;30077;52.474;13.326;2023-03-20T01:37:50;100889.34;;;13.43;nan
44359;BME280;30077;52.474;13.326;2023-03-20T01:42:51;100891.88;;;13.46;nan
44359;BME280;30077;52.474;13.326;2023-03-20T01:47:52;100886.19;;;13.53;nan
44359;BME280;30077;52.474;13.326;2023-03-20T01:52:54;100891.25;;;13.59;nan
44359;BME280;30077;52.474;13.326;2023-03-20T01:57:56;100890.13;;;13.63;nan
44359;BME280;30077;52.474;13.326;2023-03-20T02:02:59;100890.88;;;13.65;nan
44359;BME280;30077;52.474;13.326;2023-03-20T02:08:10;100908.09;;;13.61;nan
44359;BME280;30077;52.474;13.326;2023-03-20T02:13:12;100902.72;;;13.61;nan
44359;BME280;30077;52.474;13.326;2023-03-20T02:18:13;100902.03;;;13.57;nan
44359;BME280;30077;52.474;13.326;2023-03-20T02:38:58;100893.00;;;13.42;nan
44359;BME280;30077;52.474;13.326;2023-03-20T02:44:05;100896.78;;;13.38;nan
44359;BME280;30077;52.474;13.326;2023-03-20T02:54:23;100908.44;;;13.55;nan
44359;BME280;30077;52.474;13.326;2023-03-20T02:59:28;100904.00;;;13.54;nan
44359;BME280;30077;52.474;13.326;2023-03-20T03:04:31;100892.97;;;13.60;nan
44359;BME280;30077;52.474;13.326;2023-03-20T03:09:34;100891.06;;;13.62;nan
44359;BME280;30077;52.474;13.326;2023-03-20T03:14:54;100902.72;;;13.61;nan
44359;BME280;30077;52.474;13.326;2023-03-20T03:19:57;100906.53;;;13.57;nan
44359;BME280;30077;52.474;13.326;2023-03-20T03:24:59;100913.97;;;13.52;nan
44359;BME280;30077;52.474;13.326;2023-03-20T03:35:09;100905.94;;;13.34;nan
44359;BME280;30077;52.474;13.326;2023-03-20T03:40:22;100904.53;;;13.27;nan
44359;BME280;30077;52.474;13.326;2023-03-20T03:45:28;100908.28;;;13.23;nan
44359;BME280;30077;52.474;13.326;2023-03-20T03:50:32;100906.88;;;13.16;nan
44359;BME280;30077;52.474;13.326;2023-03-20T03:55:36;100908.59;;;13.17;nan
44359;BME280;30077;52.474;13.326;2023-03-20T04:00:39;100903.47;;;13.12;nan
44359;BME280;30077;52.474;13.326;2023-03-20T04:05:41;100909.94;;;13.08;nan
44359;BME280;30077;52.474;13.326;2023-03-20T04:10:43;100921.53;;;13.09;nan
44359;BME280;30077;52.474;13.326;2023-03-20T04:15:43;100923.81;;;13.16;nan
44359;BME280;30077;52.474;13.326;2023-03-20T04:20:44;100923.75;;;13.00;nan
44359;BME280;30077;52.474;13.326;2023-03-20T04:25:45;100930.97;;;12.98;nan
44359;BME280;30077;52.474;13.326;2023-03-20T04:30:56;100932.22;;;12.91;nan
44359;BME280;30077;52.474;13.326;2023-03-20T04:35:56;100939.31;;;12.92;nan
44359;BME280;30077;52.474;13.326;2023-03-20T04:40:57;100934.31;;;13.04;nan
44359;BME280;30077;52.474;13.326;2023-03-20T04:45:57;100935.88;;;13.08;nan
44359;BME280;30077;52.474;13.326;2023-03-20T04:50:57;100926.16;;;13.05;nan
44359;BME280;30077;52.474;13.326;2023-03-20T04:55:58;100937.44;;;13.12;nan
44359;BME280;30077;52.474;13.326;2023-03-20T05:00:58;100938.63;;;13.06;nan
44359;BME280;30077;52.474;13.326;2023-03-20T05:05:58;100943.72;;;13.11;nan
44359;BME280;30077;52.474;13.326;2023-03-20T05:10:58;100943.56;;;13.14;nan
44359;BME280;30077;52.474;13.326;2023-03-20T05:15:59;100938.47;;;13.09;nan
44359;BME280;30077;52.474;13.326;2023-03-20T05:21:00;100948.00;;;13.15;nan
44359;BME280;30077;52.474;13.326;2023-03-20T05:26:01;100951.47;;;13.17;nan
44359;BME280;30077;52.474;13.326;2023-03-20T05:31:02;100944.38;;;13.16;nan
44359;BME280;30077;52.474;13.326;2023-03-20T05:36:02;100952.25;;;13.19;nan
44359;BME280;30077;52.474;13.326;2023-03-20T05:41:02;100946.69;;;13.23;nan
44359;BME280;30077;52.474;13.326;2023-03-20T05:46:03;100940.44;;;13.23;nan
44359;BME280;30077;52.474;13.326;2023-03-20T05:51:03;100949.13;;;13.28;nan
44359;BME280;30077;52.474;13.326;2023-03-20T05:56:03;100952.28;;;13.36;nan
44359;BME280;30077;52.474;13.326;2023-03-20T06:01:04;100949.44;;;13.39;nan
44359;BME280;30077;52.474;13.326;2023-03-20T06:06:04;100966.41;;;13.40;nan
44359;BME280;30077;52.474;13.326;2023-03-20T06:11:05;100975.13;;;13.43;nan
44359;BME280;30077;52.474;13.326;2023-03-20T06:16:05;100981.78;;;13.36;nan
44359;BME280;30077;52.474;13.326;2023-03-20T06:21:06;100994.66;;;13.28;nan
44359;BME280;30077;52.474;13.326;2023-03-20T06:26:06;100991.47;;;13.02;nan
44359;BME280;30077;52.474;13.326;2023-03-20T06:31:07;101008.69;;;12.80;nan
44359;BME280;30077;52.474;13.326;2023-03-20T06:36:08;101003.72;;;12.34;nan
44359;BME280;30077;52.474;13.326;2023-03-20T06:41:09;101014.63;;;12.48;nan
44359;BME280;30077;52.474;13.326;2023-03-20T06:46:16;101031.84;;;12.62;100.00
44359;BME280;30077;52.474;13.326;2023-03-20T06:51:17;101025.47;;;12.26;100.00
44359;BME280;30077;52.474;13.326;2023-03-20T06:56:17;101034.94;;;12.15;100.00
44359;BME280;30077;52.474;13.326;2023-03-20T07:01:17;101038.28;;;12.58;100.00
44359;BME280;30077;52.474;13.326;2023-03-20T07:06:19;101048.34;;;12.52;98.85
44359;BME280;30077;52.474;13.326;2023-03-20T07:11:19;101045.97;;;12.46;98.08
44359;BME280;30077;52.474;13.326;2023-03-20T07:16:20;101050.13;;;12.33;98.79
44359;BME280;30077;52.474;13.326;2023-03-20T07:21:20;101054.53;;;12.34;97.93
44359;BME280;30077;52.474;13.326;2023-03-20T07:26:21;101049.78;;;12.01;100.00
44359;BME280;30077;52.474;13.326;2023-03-20T07:31:23;101056.38;;;11.72;100.00
44359;BME280;30077;52.474;13.326;2023-03-20T07:36:24;101064.91;;;12.02;100.00
44359;BME280;30077;52.474;13.326;2023-03-20T07:41:24;101057.03;;;11.99;100.00
44359;BME280;30077;52.474;13.326;2023-03-20T07:46:24;101069.59;;;11.97;100.00
44359;BME280;30077;52.474;13.326;2023-03-20T07:51:25;101065.69;;;12.25;100.00
44359;BME280;30077;52.474;13.326;2023-03-20T07:56:25;101064.59;;;12.29;98.48
44359;BME280;30077;52.474;13.326;2023-03-20T08:01:25;101064.91;;;12.80;95.84
44359;BME280;30077;52.474;13.326;2023-03-20T08:06:26;101073.88;;;12.97;94.10
44359;BME280;30077;52.474;13.326;2023-03-20T08:11:26;101068.50;;;12.97;93.08
44359;BME280;30077;52.474;13.326;2023-03-20T08:16:26;101073.72;;;13.00;93.16
44359;BME280;30077;52.474;13.326;2023-03-20T08:21:27;101082.97;;;13.12;91.34
44359;BME280;30077;52.474;13.326;2023-03-20T08:26:27;101091.53;;;13.01;91.57
44359;BME280;30077;52.474;13.326;2023-03-20T08:31:27;101099.09;;;12.35;94.31
44359;BME280;30077;52.474;13.326;2023-03-20T08:36:28;101091.22;;;13.27;91.25
44359;BME280;30077;52.474;13.326;2023-03-20T08:41:28;101085.94;;;14.12;84.59
44359;BME280;30077;52.474;13.326;2023-03-20T08:46:28;101071.91;;;15.05;79.10
44359;BME280;30077;52.474;13.326;2023-03-20T08:51:29;101082.16;;;15.44;74.30
44359;BME280;30077;52.474;13.326;2023-03-20T08:56:29;101088.44;;;15.75;70.96
44359;BME280;30077;52.474;13.326;2023-03-20T09:01:29;101096.13;;;15.51;71.54
44359;BME280;30077;52.474;13.326;2023-03-20T09:06:29;101093.63;;;15.48;71.66
44359;BME280;30077;52.474;13.326;2023-03-20T09:11:30;101101.50;;;16.11;67.98
44359;BME280;30077;52.474;13.326;2023-03-20T09:16:31;101103.03;;;16.15;67.75
44359;BME280;30077;52.474;13.326;2023-03-20T09:21:31;101098.59;;;15.54;70.07
44359;BME280;30077;52.474;13.326;2023-03-20T09:26:31;101091.47;;;15.84;69.23
44359;BME280;30077;52.474;13.326;2023-03-20T09:31:31;101091.63;;;15.81;67.90
44359;BME280;30077;52.474;13.326;2023-03-20T09:36:31;101092.66;;;16.09;67.40
44359;BME280;30077;52.474;13.326;2023-03-20T09:41:32;101097.09;;;16.53;66.10
44359;BME280;30077;52.474;13.326;2023-03-20T09:46:42;101081.59;;;17.26;63.83
44359;BME280;30077;52.474;13.326;2023-03-20T09:51:50;101086.47;;;17.34;62.15
44359;BME280;30077;52.474;13.326;2023-03-20T09:56:52;101100.06;;;16.48;64.03
44359;BME280;30077;52.474;13.326;2023-03-20T10:01:58;101099.41;;;16.16;66.21
44359;BME280;30077;52.474;13.326;2023-03-20T10:07:00;101098.97;;;15.94;67.31
44359;BME280;30077;52.474;13.326;2023-03-20T10:12:05;101109.72;;;15.94;67.91
44359;BME280;30077;52.474;13.326;2023-03-20T10:17:12;101107.97;;;15.62;68.47
44359;BME280;30077;52.474;13.326;2023-03-20T10:22:31;101105.13;;;15.50;68.66
44359;BME280;30077;52.474;13.326;2023-03-20T10:27:34;101095.75;;;15.57;68.03
44359;BME280;30077;52.474;13.326;2023-03-20T10:42:49;101089.28;;;15.91;66.02
44359;BME280;30077;52.474;13.326;2023-03-20T10:47:51;101095.31;;;15.95;65.41
44359;BME280;30077;52.474;13.326;2023-03-20T10:52:52;101084.50;;;15.66;65.62
44359;BME280;30077;52.474;13.326;2023-03-20T10:57:59;101085.59;;;15.92;64.42
44359;BME280;30077;52.474;13.326;2023-03-20T11:03:01;101096.66;;;15.41;65.14
44359;BME280;30077;52.474;13.326;2023-03-20T11:18:25;101077.56;;;16.06;62.69
44359;BME280;30077;52.474;13.326;2023-03-20T11:23:32;101078.44;;;16.35;61.95
44359;BME280;30077;52.474;13.326;2023-03-20T11:28:46;101073.53;;;16.71;60.24
44359;BME280;30077;52.474;13.326;2023-03-20T11:33:52;101087.25;;;16.95;60.11
44359;BME280;30077;52.474;13.326;2023-03-20T11:38:52;101079.53;;;17.03;58.88
44359;BME280;30077;52.474;13.326;2023-03-20T11:43:56;101082.16;;;16.90;59.51
44359;BME280;30077;52.474;13.326;2023-03-20T11:49:06;101061.63;;;16.75;59.79
44359;BME280;30077;52.474;13.326;2023-03-20T11:54:12;101059.97;;;16.58;60.14
44359;BME280;30077;52.474;13.326;2023-03-20T11:59:14;101054.75;;;16.69;60.82
44359;BME280;30077;52.474;13.326;2023-03-20T12:04:18;101044.91;;;16.97;60.04
44359;BME280;30077;52.474;13.326;2023-03-20T12:14:26;101045.88;;;16.96;59.07
44359;BME280;30077;52.474;13.326;2023-03-20T12:19:29;101036.16;;;17.20;57.65
44359;BME280;30077;52.474;13.326;2023-03-20T12:24:36;101023.97;;;17.27;57.14
44359;BME280;30077;52.474;13.326;2023-03-20T12:29:40;101030.81;;;17.06;56.88
44359;BME280;30077;52.474;13.326;2023-03-20T12:34:46;101015.19;;;16.84;57.31
44359;BME280;30077;52.474;13.326;2023-03-20T12:39:53;101013.34;;;16.70;57.82
44359;BME280;30077;52.474;13.326;2023-03-20T12:55:40;101010.94;;;16.24;58.98
44359;BME280;30077;52.474;13.326;2023-03-20T13:00:44;101005.44;;;16.26;59.01
44359;BME280;30077;52.474;13.326;2023-03-20T13:05:55;100999.59;;;16.19;59.34
44359;BME280;30077;52.474;13.326;2023-03-20T13:11:01;101005.19;;;16.30;59.42
44359;BME280;30077;52.474;13.326;2023-03-20T13:21:09;101001.28;;;16.63;58.73
44359;BME280;30077;52.474;13.326;2023-03-20T13:26:32;101003.91;;;16.92;57.93
44359;BME280;30077;52.474;13.326;2023-03-20T13:41:56;100986.69;;;17.34;57.29
44359;BME280;30077;52.474;13.326;2023-03-20T13:46:59;100987.94;;;17.16;58.41
44359;BME280;30077;52.474;13.326;2023-03-20T13:52:21;100988.59;;;17.19;58.66
44359;BME280;30077;52.474;13.326;2023-03-20T14:02:23;100988.56;;;16.65;59.66
44359;BME280;30077;52.474;13.326;2023-03-20T14:07:29;100986.25;;;16.59;60.86
44359;BME280;30077;52.474;13.326;2023-03-20T14:12:30;100982.88;;;15.85;62.83
44359;BME280;30077;52.474;13.326;2023-03-20T14:17:31;100981.50;;;15.78;63.48
44359;BME280;30077;52.474;13.326;2023-03-20T14:22:34;100978.44;;;15.70;64.11
44359;BME280;30077;52.474;13.326;2023-03-20T14:27:36;100973.56;;;15.77;64.54
44359;BME280;30077;52.474;13.326;2023-03-20T14:32:52;100976.94;;;15.95;63.94
44359;BME280;30077;52.474;13.326;2023-03-20T14:38:19;100973.38;;;15.80;64.15
44359;BME280;30077;52.474;13.326;2023-03-20T14:43:30;100964.88;;;15.72;65.03
44359;BME280;30077;52.474;13.326;2023-03-20T14:48:41;100966.16;;;15.95;64.74
44359;BME280;30077;52.474;13.326;2023-03-20T14:53:49;100965.09;;;15.97;64.58
44359;BME280;30077;52.474;13.326;2023-03-20T14:58:52;100962.13;;;16.02;64.85
44359;BME280;30077;52.474;13.326;2023-03-20T15:04:39;100951.56;;;15.99;64.88
44359;BME280;30077;52.474;13.326;2023-03-20T15:09:15;100959.44;;;16.16;64.46
44359;BME280;30077;52.474;13.326;2023-03-20T15:14:21;100941.94;;;16.09;64.17
44359;BME280;30077;52.474;13.326;2023-03-20T15:19:23;100940.94;;;16.24;63.90
44359;BME280;30077;52.474;13.326;2023-03-20T15:24:27;100939.81;;;16.14;64.63
44359;BME280;30077;52.474;13.326;2023-03-20T15:29:28;100929.84;;;16.02;65.08
44359;BME280;30077;52.474;13.326;2023-03-20T15:34:31;100938.59;;;16.05;65.73
44359;BME280;30077;52.474;13.326;2023-03-20T15:39:40;100934.53;;;15.70;66.81
44359;BME280;30077;52.474;13.326;2023-03-20T15:44:41;100932.91;;;15.67;66.70
44359;BME280;30077;52.474;13.326;2023-03-20T15:49:47;100932.91;;;15.67;66.89
44359;BME280;30077;52.474;13.326;2023-03-20T15:54:47;100943.47;;;15.84;66.35
44359;BME280;30077;52.474;13.326;2023-03-20T15:59:48;100945.00;;;15.74;65.91
44359;BME280;30077;52.474;13.326;2023-03-20T16:04:50;100955.81;;;15.44;67.02
44359;BME280;30077;52.474;13.326;2023-03-20T16:09:51;100954.00;;;15.59;66.40
44359;BME280;30077;52.474;13.326;2023-03-20T16:14:53;100960.50;;;15.40;66.97
44359;BME280;30077;52.474;13.326;2023-03-20T16:19:54;100951.34;;;14.99;68.34
44359;BME280;30077;52.474;13.326;2023-03-20T16:24:54;100956.66;;;14.84;68.95
44359;BME280;30077;52.474;13.326;2023-03-20T16:29:56;100956.72;;;14.53;69.83
44359;BME280;30077;52.474;13.326;2023-03-20T16:34:56;100945.16;;;14.82;69.50
44359;BME280;30077;52.474;13.326;2023-03-20T16:40:02;100953.06;;;14.54;69.80
44359;BME280;30077;52.474;13.326;2023-03-20T16:45:04;100953.47;;;14.46;70.45
44359;BME280;30077;52.474;13.326;2023-03-20T16:50:10;100952.34;;;14.34;70.93
44359;BME280;30077;52.474;13.326;2023-03-20T16:55:16;100952.69;;;14.44;70.70
44359;BME280;30077;52.474;13.326;2023-03-20T17:00:19;100955.66;;;14.55;70.28
44359;BME280;30077;52.474;13.326;2023-03-20T17:05:20;100969.47;;;14.48;70.68
44359;BME280;30077;52.474;13.326;2023-03-20T17:10:21;100956.22;;;14.44;70.51
44359;BME280;30077;52.474;13.326;2023-03-20T17:15:24;100961.09;;;14.38;71.04
44359;BME280;30077;52.474;13.326;2023-03-20T17:20:26;100965.50;;;14.39;71.21
44359;BME280;30077;52.474;13.326;2023-03-20T17:25:27;100968.63;;;14.31;71.83
44359;BME280;30077;52.474;13.326;2023-03-20T17:30:27;100972.06;;;14.33;71.97
44359;BME280;30077;52.474;13.326;2023-03-20T17:35:27;100981.88;;;14.34;72.02
44359;BME280;30077;52.474;13.326;2023-03-20T17:40:27;100982.13;;;14.45;71.58
44359;BME280;30077;52.474;13.326;2023-03-20T17:45:27;100988.00;;;14.36;72.01
44359;BME280;30077;52.474;13.326;2023-03-20T17:50:27;100985.91;;;14.41;71.62
44359;BME280;30077;52.474;13.326;2023-03-20T17:55:28;100984.72;;;14.47;71.32
44359;BME280;30077;52.474;13.326;2023-03-20T18:00:28;100987.66;;;14.42;71.07
44359;BME280;30077;52.474;13.326;2023-03-20T18:05:28;100985.06;;;14.25;70.09
44359;BME280;30077;52.474;13.326;2023-03-20T18:10:31;100987.66;;;14.42;69.01
44359;BME280;30077;52.474;13.326;2023-03-20T18:15:31;100978.66;;;14.43;68.43
44359;BME280;30077;52.474;13.326;2023-03-20T18:20:32;100983.34;;;14.24;67.18
44359;BME280;30077;52.474;13.326;2023-03-20T18:25:33;100976.50;;;14.34;66.46
44359;BME280;30077;52.474;13.326;2023-03-20T18:30:34;100988.34;;;14.30;67.10
44359;BME280;30077;52.474;13.326;2023-03-20T18:35:35;100981.56;;;14.23;67.12
44359;BME280;30077;52.474;13.326;2023-03-20T18:40:35;100981.41;;;14.26;66.54
44359;BME280;30077;52.474;13.326;2023-03-20T18:45:35;100983.66;;;14.18;65.87
44359;BME280;30077;52.474;13.326;2023-03-20T18:50:38;100996.97;;;14.19;65.92
44359;BME280;30077;52.474;13.326;2023-03-20T18:55:41;100986.44;;;14.16;66.04
44359;BME280;30077;52.474;13.326;2023-03-20T19:00:41;100990.91;;;14.16;65.72
44359;BME280;30077;52.474;13.326;2023-03-20T19:05:42;100989.56;;;14.25;65.59
44359;BME280;30077;52.474;13.326;2023-03-20T19:10:42;100993.53;;;14.17;65.69
44359;BME280;30077;52.474;13.326;2023-03-20T19:15:43;100987.94;;;14.05;65.81
44359;BME280;30077;52.474;13.326;2023-03-20T19:20:44;100995.41;;;14.00;66.51
44359;BME280;30077;52.474;13.326;2023-03-20T19:25:45;100994.69;;;13.96;66.59
44359;BME280;30077;52.474;13.326;2023-03-20T19:30:46;101008.19;;;13.94;66.78
44359;BME280;30077;52.474;13.326;2023-03-20T19:35:46;100992.59;;;13.85;66.88
44359;BME280;30077;52.474;13.326;2023-03-20T19:40:47;100997.84;;;13.87;67.15
44359;BME280;30077;52.474;13.326;2023-03-20T19:45:48;100999.84;;;13.83;67.31
44359;BME280;30077;52.474;13.326;2023-03-20T19:50:51;100992.19;;;13.76;67.60
44359;BME280;30077;52.474;13.326;2023-03-20T19:55:52;100999.22;;;13.61;68.19
44359;BME280;30077;52.474;13.326;2023-03-20T20:00:53;100993.50;;;13.51;68.53
44359;BME280;30077;52.474;13.326;2023-03-20T20:05:53;101001.91;;;13.43;68.12
44359;BME280;30077;52.474;13.326;2023-03-20T20:10:54;100991.91;;;13.47;67.62
44359;BME280;30077;52.474;13.326;2023-03-20T20:15:54;100997.81;;;13.54;66.93
44359;BME280;30077;52.474;13.326;2023-03-20T20:20:55;100996.41;;;13.46;66.41
44359;BME280;30077;52.474;13.326;2023-03-20T20:25:57;100992.41;;;13.38;65.70
44359;BME280;30077;52.474;13.326;2023-03-20T20:30:58;100988.66;;;13.23;64.86
44359;BME280;30077;52.474;13.326;2023-03-20T20:35:58;100988.91;;;13.36;64.26
44359;BME280;30077;52.474;13.326;2023-03-20T20:40:59;100980.16;;;13.32;64.26
44359;BME280;30077;52.474;13.326;2023-03-20T20:46:00;100988.66;;;13.23;63.73
44359;BME280;30077;52.474;13.326;2023-03-20T20:51:01;100989.56;;;13.23;63.56
44359;BME280;30077;52.474;13.326;2023-03-20T20:56:01;100988.81;;;13.20;63.78
44359;BME280;30077;52.474;13.326;2023-03-20T21:01:02;100996.66;;;13.24;63.56
44359;BME280;30077;52.474;13.326;2023-03-20T21:06:05;100991.34;;;13.23;63.51
44359;BME280;30077;52.474;13.326;2023-03-20T21:11:05;100986.03;;;13.21;63.26
44359;BME280;30077;52.474;13.326;2023-03-20T21:16:06;100961.22;;;13.18;63.22
44359;BME280;30077;52.474;13.326;2023-03-20T21:21:08;100990.88;;;13.15;63.30
44359;BME280;30077;52.474;13.326;2023-03-20T21:26:08;100955.25;;;13.13;63.07
44359;BME280;30077;52.474;13.326;2023-03-20T21:31:09;100985.34;;;13.18;63.47
44359;BME280;30077;52.474;13.326;2023-03-20T21:36:10;100980.41;;;13.28;63.36
44359;BME280;30077;52.474;13.326;2023-03-20T21:41:10;100993.09;;;13.24;63.14
44359;BME280;30077;52.474;13.326;2023-03-20T21:46:11;100994.91;;;13.23;63.43
44359;BME280;30077;52.474;13.326;2023-03-20T21:51:11;101000.47;;;13.19;63.39
44359;BME280;30077;52.474;13.326;2023-03-20T21:56:12;100999.81;;;13.14;63.29
44359;BME280;30077;52.474;13.326;2023-03-20T22:01:12;101000.88;;;13.11;63.42
44359;BME280;30077;52.474;13.326;2023-03-20T22:06:12;100996.53;;;13.09;63.52
44359;BME280;30077;52.474;13.326;2023-03-20T22:11:12;100999.34;;;13.06;63.57
44359;BME280;30077;52.474;13.326;2023-03-20T22:16:13;101002.75;;;13.09;63.76
44359;BME280;30077;52.474;13.326;2023-03-20T22:21:15;101011.31;;;12.98;63.66
44359;BME280;30077;52.474;13.326;2023-03-20T22:26:15;101004.94;;;13.01;63.84
44359;BME280;30077;52.474;13.326;2023-03-20T22:31:15;101009.28;;;13.04;63.69
44359;BME280;30077;52.474;13.326;2023-03-20T22:36:15;101003.94;;;13.04;64.09
44359;BME280;30077;52.474;13.326;2023-03-20T22:41:16;101002.50;;;12.96;64.19
44359;BME280;30077;52.474;13.326;2023-03-20T22:46:16;101000.59;;;12.98;64.08
44359;BME280;30077;52.474;13.326;2023-03-20T22:51:16;100999.59;;;13.01;63.87
44359;BME280;30077;52.474;13.326;2023-03-20T22:56:17;101000.59;;;12.98;63.92
44359;BME280;30077;52.474;13.326;2023-03-20T23:01:18;101009.75;;;12.94;64.09
44359;BME280;30077;52.474;13.326;2023-03-20T23:06:19;101002.41;;;12.98;63.83
44359;BME280;30077;52.474;13.326;2023-03-20T23:11:20;101002.66;;;12.93;64.00
44359;BME280;30077;52.474;13.326;2023-03-20T23:16:21;101008.00;;;12.93;63.66
44359;BME280;30077;52.474;13.326;2023-03-20T23:21:21;101006.56;;;12.86;63.43
44359;BME280;30077;52.474;13.326;2023-03-20T23:26:21;100997.16;;;12.96;63.54
44359;BME280;30077;52.474;13.326;2023-03-20T23:31:23;101002.50;;;12.96;63.35
44359;BME280;30077;52.474;13.326;2023-03-20T23:36:24;101003.13;;;13.01;63.17
44359;BME280;30077;52.474;13.326;2023-03-20T23:41:26;100995.09;;;13.01;63.33
44359;BME280;30077;52.474;13.326;2023-03-20T23:46:26;101001.56;;;12.97;63.21
44359;BME280;30077;52.474;13.326;2023-03-20T23:51:26;100998.72;;;13.00;63.33
44359;BME280;30077;52.474;13.326;2023-03-20T23:56:26;101001.88;;;13.09;63.17
